Time;durP1;ratioP1;P1;durP2;ratioP2;P2;SDS_P1;SDS_P2;PMS_P1;PMS_P2;Temp;Humidity;BMP_temperature;BMP_pressure;BME280_temperature;BME280_humidity;BME280_pressure;Samples;Min_cycle;Max_cycle;Signal;HPM_P1;HPM_P2
2022/05/09 00:02:00;;;;;;;5.22;4.82;;;14.90;99.90;;;;;;5030613;28;20666;-72
2022/05/09 00:04:29;;;;;;;9.52;5.00;;;14.90;99.90;;;;;;5031197;28;20216;-72
2022/05/09 00:06:57;;;;;;;5.85;4.85;;;14.90;99.90;;;;;;5030996;28;20700;-72
2022/05/09 00:09:25;;;;;;;5.15;4.65;;;14.90;99.90;;;;;;5031225;28;20232;-72
2022/05/09 00:11:53;;;;;;;5.18;4.78;;;14.80;99.90;;;;;;5031038;28;20270;-72
2022/05/09 00:14:21;;;;;;;5.57;5.03;;;14.70;99.90;;;;;;5030379;28;20201;-71
2022/05/09 00:16:50;;;;;;;6.95;5.55;;;14.70;99.90;;;;;;5047767;28;20601;-72
2022/05/09 00:19:20;;;;;;;5.78;5.15;;;14.70;99.90;;;;;;5050901;28;20210;-71
2022/05/09 00:21:51;;;;;;;9.00;5.22;;;14.60;99.90;;;;;;5044594;28;20210;-71
2022/05/09 00:24:20;;;;;;;5.93;5.40;;;14.60;99.90;;;;;;5043881;28;20255;-71
2022/05/09 00:26:50;;;;;;;6.35;4.70;;;14.60;99.90;;;;;;5050504;28;20227;-71
2022/05/09 00:29:20;;;;;;;5.95;5.35;;;14.70;99.90;;;;;;5050838;28;20298;-71
2022/05/09 00:31:50;;;;;;;4.95;4.55;;;14.60;99.90;;;;;;5050380;28;20239;-71
2022/05/09 00:34:21;;;;;;;6.07;5.57;;;14.50;99.90;;;;;;5049992;28;20282;-71
2022/05/09 00:36:55;;;;;;;6.20;5.53;;;14.60;99.90;;;;;;5050693;28;20251;-71
2022/05/09 00:39:23;;;;;;;5.30;4.82;;;14.60;99.90;;;;;;5052933;28;20235;-71
2022/05/09 00:41:51;;;;;;;6.22;5.15;;;14.50;99.90;;;;;;5056206;28;20224;-70
2022/05/09 00:44:21;;;;;;;6.00;4.72;;;14.60;99.90;;;;;;5054099;28;20254;-71
2022/05/09 00:46:51;;;;;;;5.60;5.20;;;14.60;99.90;;;;;;5054629;28;20261;-71
2022/05/09 00:49:23;;;;;;;6.10;5.32;;;14.60;99.90;;;;;;5054824;28;20307;-72
2022/05/09 00:52:01;;;;;;;5.07;4.57;;;14.60;99.90;;;;;;5054579;28;20891;-71
2022/05/09 00:54:36;;;;;;;6.32;5.22;;;14.50;99.90;;;;;;5059759;28;20227;-71
2022/05/09 00:57:08;;;;;;;6.88;5.47;;;14.50;99.90;;;;;;5054014;28;20262;-70
2022/05/09 00:59:38;;;;;;;9.23;5.72;;;14.50;99.90;;;;;;5048335;28;20250;-71
2022/05/09 01:02:06;;;;;;;6.15;4.95;;;14.40;99.90;;;;;;5047395;28;20235;-71
2022/05/09 01:04:41;;;;;;;6.40;5.32;;;14.50;99.90;;;;;;5054484;28;20212;-71
2022/05/09 01:07:11;;;;;;;5.30;4.90;;;14.50;99.90;;;;;;5054307;28;20249;-71
2022/05/09 01:09:39;;;;;;;6.25;5.10;;;14.40;99.90;;;;;;5054451;28;20303;-71
2022/05/09 01:12:11;;;;;;;5.97;5.05;;;14.40;99.90;;;;;;5053584;28;20212;-70
2022/05/09 01:14:40;;;;;;;6.30;5.70;;;14.50;99.90;;;;;;5054388;28;20275;-71
2022/05/09 01:17:10;;;;;;;6.47;5.40;;;14.30;99.90;;;;;;5053908;28;20590;-71
2022/05/09 01:19:42;;;;;;;6.95;4.95;;;14.40;99.90;;;;;;5054250;28;20200;-70
2022/05/09 01:22:23;;;;;;;5.25;4.85;;;14.40;99.90;;;;;;5053216;28;20634;-69
2022/05/09 01:24:52;;;;;;;7.80;5.97;;;14.40;99.90;;;;;;5053966;28;20640;-70
2022/05/09 01:27:20;;;;;;;5.50;5.00;;;14.40;99.90;;;;;;5053994;28;20247;-69
2022/05/09 01:29:55;;;;;;;8.27;5.38;;;14.40;99.90;;;;;;5053972;28;20282;-70
2022/05/09 01:32:28;;;;;;;6.22;5.63;;;14.30;99.90;;;;;;5052961;28;20207;-70
2022/05/09 01:35:02;;;;;;;6.32;5.78;;;14.30;99.90;;;;;;5054036;28;20691;-69
2022/05/09 01:37:33;;;;;;;6.72;6.13;;;14.30;99.90;;;;;;5048579;28;20200;-70
2022/05/09 01:40:01;;;;;;;5.95;5.45;;;14.30;99.90;;;;;;5053849;28;20204;-71
2022/05/09 01:42:30;;;;;;;8.95;6.07;;;14.20;99.90;;;;;;5052824;28;20204;-71
2022/05/09 01:44:57;;;;;;;6.63;5.95;;;14.20;99.90;;;;;;5053331;28;20289;-72
2022/05/09 01:50:11;;;;;;;5.53;4.85;;;14.20;99.90;;;;;;5052678;28;20653;-71
2022/05/09 01:52:40;;;;;;;7.07;5.97;;;14.20;99.90;;;;;;5052279;28;20235;-71
2022/05/09 01:55:08;;;;;;;5.45;4.95;;;14.20;99.90;;;;;;5050472;28;20616;-72
2022/05/09 01:57:36;;;;;;;6.07;5.57;;;14.20;99.90;;;;;;5053653;28;20258;-72
2022/05/09 02:00:09;;;;;;;6.20;5.60;;;14.20;99.90;;;;;;5053357;28;20258;-72
2022/05/09 02:02:39;;;;;;;6.22;5.63;;;14.20;99.90;;;;;;5052555;28;20246;-72
2022/05/09 02:05:09;;;;;;;8.30;5.95;;;14.30;99.90;;;;;;5053204;28;20310;-72
2022/05/09 02:07:37;;;;;;;6.82;6.32;;;14.20;99.90;;;;;;5053304;28;20207;-71
2022/05/09 02:10:09;;;;;;;6.25;5.65;;;14.20;99.90;;;;;;5053155;28;20291;-72
2022/05/09 02:12:37;;;;;;;9.75;6.07;;;14.10;99.90;;;;;;5052110;28;20236;-71
2022/05/09 02:15:09;;;;;;;6.30;5.80;;;14.10;99.90;;;;;;5052675;28;20216;-72
2022/05/09 02:17:37;;;;;;;6.15;5.53;;;14.00;99.90;;;;;;5052923;28;20207;-71
2022/05/09 02:20:08;;;;;;;7.70;5.75;;;14.00;99.90;;;;;;5062391;28;20273;-71
2022/05/09 02:22:36;;;;;;;6.60;6.00;;;14.00;99.90;;;;;;5049023;28;20243;-69
2022/05/09 02:27:51;;;;;;;6.28;5.78;;;13.90;99.90;;;;;;5052130;28;20203;-71
2022/05/09 02:30:19;;;;;;;6.60;6.00;;;13.80;99.90;;;;;;5052740;28;20243;-71
2022/05/09 02:32:47;;;;;;;7.43;6.68;;;13.80;99.90;;;;;;5052047;28;20303;-72
2022/05/09 02:35:15;;;;;;;6.45;5.75;;;13.90;99.90;;;;;;5052813;28;21075;-71
2022/05/09 02:37:43;;;;;;;6.80;6.20;;;13.80;99.90;;;;;;5052710;28;20231;-72
2022/05/09 02:40:12;;;;;;;6.15;5.55;;;13.70;99.90;;;;;;5052738;28;20204;-72
2022/05/09 02:42:40;;;;;;;7.35;6.40;;;13.70;99.90;;;;;;5051825;28;20250;-72
2022/05/09 02:45:10;;;;;;;7.20;6.60;;;13.80;99.90;;;;;;5052265;28;20273;-72
2022/05/09 02:47:40;;;;;;;6.80;6.20;;;13.80;99.90;;;;;;5052330;28;20226;-72
2022/05/09 02:50:09;;;;;;;9.05;5.90;;;13.80;99.90;;;;;;5052253;28;20203;-72
2022/05/09 02:52:37;;;;;;;7.78;6.03;;;13.80;99.90;;;;;;5052974;28;20358;-72
2022/05/09 02:55:08;;;;;;;6.35;5.82;;;13.80;99.90;;;;;;5052442;28;20270;-73
2022/05/09 02:57:37;;;;;;;6.50;5.90;;;13.90;99.90;;;;;;5052378;28;20570;-74
2022/05/09 03:00:09;;;;;;;9.38;5.85;;;13.90;99.90;;;;;;5052301;28;20653;-73
2022/05/09 03:02:39;;;;;;;6.68;5.93;;;13.80;99.90;;;;;;5051229;28;20195;-73
2022/05/09 03:05:08;;;;;;;7.50;6.80;;;13.70;99.90;;;;;;5050875;28;20224;-73
2022/05/09 03:07:35;;;;;;;6.25;5.22;;;13.70;99.90;;;;;;5052255;28;20203;-73
2022/05/09 03:10:10;;;;;;;6.35;5.75;;;13.70;99.90;;;;;;5052306;28;20616;-73
2022/05/09 03:12:39;;;;;;;7.30;6.13;;;13.70;99.90;;;;;;5051144;28;20204;-73
2022/05/09 03:15:09;;;;;;;7.22;6.05;;;13.50;99.90;;;;;;5051569;28;20247;-75
2022/05/09 03:17:37;;;;;;;6.63;5.97;;;13.40;99.90;;;;;;5052321;28;20236;-72
2022/05/09 03:20:08;;;;;;;9.52;6.82;;;13.40;99.90;;;;;;5057485;28;20200;-72
2022/05/09 03:22:37;;;;;;;8.25;5.90;;;13.50;99.90;;;;;;5050839;28;20697;-72
2022/05/09 03:25:07;;;;;;;6.47;5.88;;;13.50;99.90;;;;;;5051913;28;20223;-72
2022/05/09 03:27:35;;;;;;;6.88;6.20;;;13.50;99.90;;;;;;5045390;28;20196;-73
2022/05/09 03:30:11;;;;;;;8.57;5.97;;;13.60;99.90;;;;;;5045550;28;20204;-73
2022/05/09 03:32:39;;;;;;;7.68;6.07;;;13.50;99.90;;;;;;5045525;28;20234;-73
2022/05/09 03:35:10;;;;;;;8.57;6.75;;;13.40;99.90;;;;;;5051459;28;20259;-73
2022/05/09 03:37:38;;;;;;;10.40;6.00;;;13.30;99.90;;;;;;5051712;28;20227;-72
2022/05/09 03:40:10;;;;;;;6.60;6.00;;;13.30;99.90;;;;;;5051534;28;20208;-72
2022/05/09 03:42:39;;;;;;;6.82;5.45;;;13.30;99.90;;;;;;5050706;28;20224;-72
2022/05/09 03:45:09;;;;;;;7.32;6.63;;;13.40;99.90;;;;;;5051168;28;20277;-73
2022/05/09 03:47:37;;;;;;;6.57;5.97;;;13.40;99.90;;;;;;5051511;28;20236;-73
2022/05/09 03:50:09;;;;;;;9.98;6.85;;;13.50;99.90;;;;;;5051134;28;20634;-74
2022/05/09 03:52:37;;;;;;;7.05;6.35;;;13.40;99.90;;;;;;5043923;28;20614;-72
2022/05/09 03:55:07;;;;;;;6.28;5.68;;;13.40;99.90;;;;;;5051100;28;20224;-72
2022/05/09 03:57:44;;;;;;;6.53;5.80;;;13.30;99.90;;;;;;5050991;28;20736;-72
2022/05/09 04:00:15;;;;;;;9.95;6.53;;;13.30;99.90;;;;;;5051362;28;20204;-72
2022/05/09 04:02:43;;;;;;;6.80;6.18;;;13.30;99.90;;;;;;5050488;28;20299;-73
2022/05/09 04:05:15;;;;;;;7.30;6.55;;;13.40;99.90;;;;;;5050921;28;20232;-73
2022/05/09 04:07:45;;;;;;;6.53;5.80;;;13.40;99.90;;;;;;5051475;28;20227;-73
2022/05/09 04:10:14;;;;;;;9.25;5.80;;;13.40;99.90;;;;;;5051169;28;20265;-73
2022/05/09 04:12:42;;;;;;;6.70;6.03;;;13.40;99.90;;;;;;5050099;28;20231;-73
2022/05/09 04:17:57;;;;;;;6.45;5.95;;;13.40;99.90;;;;;;5051441;28;20232;-72
2022/05/09 04:20:28;;;;;;;5.78;5.28;;;13.30;99.90;;;;;;5051807;28;20203;-72
2022/05/09 04:22:56;;;;;;;18.23;6.45;;;13.30;99.90;;;;;;5049937;28;20200;-72
2022/05/09 04:25:24;;;;;;;6.95;6.28;;;13.30;99.90;;;;;;5050676;28;20259;-73
2022/05/09 04:27:53;;;;;;;8.05;6.28;;;13.20;99.90;;;;;;5050632;28;20214;-72
2022/05/09 04:30:21;;;;;;;7.53;6.13;;;13.20;99.90;;;;;;5048109;28;20214;-72
2022/05/09 04:32:49;;;;;;;5.95;5.40;;;13.30;99.90;;;;;;5049491;28;20199;-72
2022/05/09 04:35:20;;;;;;;8.23;6.38;;;13.30;99.90;;;;;;5050512;28;20273;-72
2022/05/09 04:37:49;;;;;;;6.82;6.05;;;13.30;99.90;;;;;;5043847;28;20658;-75
2022/05/09 04:40:18;;;;;;;8.00;6.25;;;13.20;99.90;;;;;;5033253;28;20295;-74
2022/05/09 04:42:46;;;;;;;7.93;6.32;;;13.30;99.90;;;;;;5035018;28;20926;-71
2022/05/09 04:45:16;;;;;;;6.78;6.00;;;13.40;99.90;;;;;;5034573;28;20262;-71
2022/05/09 04:47:45;;;;;;;6.57;5.63;;;13.30;99.90;;;;;;5031019;28;21590;-71
2022/05/09 04:50:15;;;;;;;10.07;5.70;;;13.20;99.90;;;;;;5034335;28;20235;-72
2022/05/09 04:52:44;;;;;;;8.80;6.90;;;13.20;99.90;;;;;;5032515;28;20236;-73
2022/05/09 04:55:13;;;;;;;6.80;6.10;;;13.10;99.90;;;;;;5033784;28;20251;-71
2022/05/09 04:57:41;;;;;;;7.28;5.15;;;13.10;99.90;;;;;;5032431;28;20277;-72
2022/05/09 05:00:12;;;;;;;8.77;5.85;;;13.10;99.90;;;;;;5032342;28;20231;-71
2022/05/09 05:02:40;;;;;;;8.15;5.90;;;13.10;99.90;;;;;;5030338;28;20295;-72
2022/05/09 05:05:10;;;;;;;9.50;5.57;;;13.20;99.90;;;;;;5031849;28;20278;-72
2022/05/09 05:07:38;;;;;;;6.90;5.85;;;13.20;99.90;;;;;;5030238;28;21409;-71
2022/05/09 05:10:09;;;;;;;7.45;5.97;;;13.20;99.90;;;;;;5015796;28;20244;-71
2022/05/09 05:12:37;;;;;;;5.05;4.50;;;13.30;99.90;;;;;;5031982;28;20293;-73
2022/05/09 05:15:07;;;;;;;7.68;5.55;;;13.30;99.90;;;;;;5031216;28;20231;-74
2022/05/09 05:17:35;;;;;;;7.68;5.68;;;13.40;99.90;;;;;;5033753;28;20271;-72
2022/05/09 05:20:04;;;;;;;5.50;4.82;;;13.50;99.90;;;;;;5027845;28;20211;-71
2022/05/09 05:22:37;;;;;;;10.35;5.40;;;13.50;99.90;;;;;;5034222;28;20256;-70
2022/05/09 05:25:07;;;;;;;6.32;5.72;;;13.60;99.90;;;;;;5029712;28;21172;-72
2022/05/09 05:27:35;;;;;;;8.60;5.60;;;13.70;99.90;;;;;;5036661;28;20313;-71
2022/05/09 05:30:04;;;;;;;7.55;6.18;;;13.70;99.90;;;;;;5049933;28;20786;-72
2022/05/09 05:32:36;;;;;;;10.82;6.50;;;13.80;99.90;;;;;;5049103;28;20634;-71
2022/05/09 05:35:05;;;;;;;8.52;5.40;;;13.80;99.90;;;;;;5053725;28;20273;-71
2022/05/09 05:37:33;;;;;;;10.68;6.10;;;13.90;99.90;;;;;;5053652;28;20723;-72
2022/05/09 05:40:01;;;;;;;6.68;5.07;;;14.00;99.90;;;;;;5052979;28;20203;-72
2022/05/09 05:42:32;;;;;;;5.43;4.93;;;14.10;99.90;;;;;;5052053;28;20210;-71
2022/05/09 05:45:00;;;;;;;6.95;6.25;;;14.20;99.90;;;;;;5052180;28;20239;-72
2022/05/09 05:47:28;;;;;;;6.95;6.00;;;14.30;99.90;;;;;;5053783;28;20236;-71
2022/05/09 05:49:57;;;;;;;12.00;6.60;;;14.30;99.90;;;;;;5059418;28;20246;-71
2022/05/09 05:52:31;;;;;;;8.27;5.93;;;14.50;99.90;;;;;;5047087;28;20203;-71
2022/05/09 05:54:59;;;;;;;9.80;6.25;;;14.60;99.90;;;;;;5053372;28;20230;-71
2022/05/09 05:57:31;;;;;;;11.75;6.40;;;14.60;99.90;;;;;;5053916;28;20231;-69
2022/05/09 06:00:02;;;;;;;8.27;5.75;;;14.80;99.90;;;;;;5053726;28;20231;-72
2022/05/09 06:02:30;;;;;;;6.40;5.43;;;14.90;99.90;;;;;;5052839;28;20204;-73
2022/05/09 06:04:58;;;;;;;6.00;5.40;;;15.00;99.90;;;;;;5053243;28;20265;-71
2022/05/09 06:07:26;;;;;;;9.93;5.57;;;15.00;99.90;;;;;;5053195;28;20262;-69
2022/05/09 06:09:54;;;;;;;6.72;4.75;;;15.10;99.90;;;;;;5052999;28;20213;-71
2022/05/09 06:12:24;;;;;;;8.98;5.10;;;15.20;99.90;;;;;;5052603;28;20239;-71
2022/05/09 06:17:35;;;;;;;8.77;5.30;;;15.40;99.90;;;;;;5051887;28;20583;-70
2022/05/09 06:20:05;;;;;;;9.57;5.28;;;15.50;99.90;;;;;;5052592;28;20204;-73
2022/05/09 06:22:36;;;;;;;9.55;5.55;;;15.70;99.90;;;;;;5048107;28;20204;-74
2022/05/09 06:25:05;;;;;;;4.82;4.40;;;15.70;99.90;;;;;;5046932;28;20286;-74
2022/05/09 06:27:33;;;;;;;8.18;4.78;;;15.80;99.90;;;;;;5052687;28;20363;-71
2022/05/09 06:30:03;;;;;;;7.55;4.53;;;16.00;99.90;;;;;;5052722;28;20203;-71
2022/05/09 06:32:32;;;;;;;4.95;4.45;;;16.00;99.90;;;;;;5052135;28;20212;-71
2022/05/09 06:35:01;;;;;;;11.20;4.95;;;16.10;99.90;;;;;;5052191;28;20192;-72
2022/05/09 06:37:32;;;;;;;6.55;5.10;;;16.30;99.90;;;;;;5052614;28;20227;-72
2022/05/09 06:40:01;;;;;;;7.13;4.70;;;16.30;99.90;;;;;;5051665;28;20234;-72
2022/05/09 06:42:30;;;;;;;5.47;3.78;;;16.40;99.90;;;;;;5052054;28;20208;-71
2022/05/09 06:44:57;;;;;;;5.32;4.18;;;16.50;99.90;;;;;;5052504;28;20231;-72
2022/05/09 06:47:27;;;;;;;4.75;3.97;;;16.60;99.90;;;;;;5052193;28;20220;-73
2022/05/09 06:49:58;;;;;;;5.03;4.28;;;16.60;99.90;;;;;;5057729;28;20235;-69
2022/05/09 06:52:27;;;;;;;6.28;4.15;;;16.70;99.90;;;;;;5046043;28;20208;-71
2022/05/09 06:54:55;;;;;;;4.55;3.47;;;16.80;99.90;;;;;;5052129;28;20222;-72
2022/05/09 06:57:22;;;;;;;5.72;3.70;;;16.70;99.90;;;;;;5052725;28;20227;-72
2022/05/09 06:59:50;;;;;;;4.40;3.45;;;16.80;99.90;;;;;;5052506;28;20265;-72
2022/05/09 07:02:18;;;;;;;5.57;3.45;;;17.00;99.90;;;;;;5051737;28;20613;-73
2022/05/09 07:04:48;;;;;;;6.45;3.65;;;17.20;99.90;;;;;;5051959;28;20467;-71
2022/05/09 07:07:15;;;;;;;7.80;3.55;;;17.30;99.90;;;;;;5051950;28;20212;-72
2022/05/09 07:09:43;;;;;;;5.75;3.03;;;17.30;99.90;;;;;;5052126;28;20206;-69
2022/05/09 07:12:12;;;;;;;8.18;3.47;;;17.30;99.90;;;;;;5051370;28;20677;-72
2022/05/09 07:14:40;;;;;;;6.10;3.35;;;17.50;99.90;;;;;;5051400;28;20261;-73
2022/05/09 07:17:08;;;;;;;6.00;3.25;;;17.60;99.90;;;;;;5051563;28;20239;-71
2022/05/09 07:19:36;;;;;;;4.57;3.03;;;17.40;99.90;;;;;;5063238;28;20211;-71
2022/05/09 07:22:06;;;;;;;10.55;3.90;;;17.50;99.90;;;;;;5047808;28;20208;-72
2022/05/09 07:24:33;;;;;;;5.40;3.28;;;17.70;99.90;;;;;;5051715;28;20625;-72
2022/05/09 07:27:01;;;;;;;3.20;2.95;;;17.70;99.90;;;;;;5051375;28;20219;-72
2022/05/09 07:29:29;;;;;;;6.15;3.83;;;17.60;99.90;;;;;;5051756;28;20204;-72
2022/05/09 07:31:57;;;;;;;6.15;3.40;;;17.70;99.90;;;;;;5051458;28;20222;-72
2022/05/09 07:34:25;;;;;;;7.15;3.08;;;17.90;99.90;;;;;;5051770;28;20218;-71
2022/05/09 07:36:53;;;;;;;3.50;3.20;;;18.10;99.90;;;;;;5051292;28;20231;-73
2022/05/09 07:39:22;;;;;;;7.97;3.10;;;18.20;99.90;;;;;;5051353;28;20341;-72
2022/05/09 07:41:50;;;;;;;4.22;3.38;;;18.30;99.90;;;;;;5051197;28;20248;-72
2022/05/09 07:44:18;;;;;;;8.05;3.28;;;18.50;99.90;;;;;;5050826;28;20243;-72
2022/05/09 07:46:46;;;;;;;9.00;3.65;;;18.60;99.90;;;;;;5051182;28;20255;-73
2022/05/09 07:49:13;;;;;;;6.63;3.13;;;18.70;99.90;;;;;;5056101;28;20224;-76
2022/05/09 07:51:42;;;;;;;5.57;3.30;;;18.90;99.90;;;;;;5050511;28;20207;-72
2022/05/09 07:54:10;;;;;;;4.40;2.70;;;19.00;99.90;;;;;;5050337;28;20228;-72
2022/05/09 07:56:43;;;;;;;2.65;2.45;;;19.20;99.90;;;;;;5050587;28;20261;-72
2022/05/09 07:59:12;;;;;;;3.20;2.70;;;19.30;99.90;;;;;;5051218;28;20200;-70
2022/05/09 08:01:40;;;;;;;5.25;2.40;;;19.50;99.90;;;;;;5051175;28;20746;-72
2022/05/09 08:04:08;;;;;;;6.13;2.90;;;19.60;99.90;;;;;;5050345;28;20674;-73
2022/05/09 08:06:36;;;;;;;10.05;3.85;;;19.70;99.90;;;;;;5051335;28;20615;-72
2022/05/09 08:09:05;;;;;;;5.20;3.22;;;19.60;99.90;;;;;;5050495;28;20219;-72
2022/05/09 08:11:33;;;;;;;4.57;3.25;;;19.60;99.90;;;;;;5050986;28;20258;-72
2022/05/09 08:14:02;;;;;;;5.03;2.63;;;19.70;99.90;;;;;;5050365;28;20250;-72
2022/05/09 08:16:30;;;;;;;4.60;3.15;;;19.70;99.90;;;;;;5044192;28;20282;-73
2022/05/09 08:18:59;;;;;;;5.03;3.10;;;19.80;99.90;;;;;;5044628;28;20644;-74
2022/05/09 08:21:27;;;;;;;4.82;2.83;;;19.90;99.90;;;;;;5045501;28;20219;-72
2022/05/09 08:23:55;;;;;;;8.25;3.28;;;19.90;99.90;;;;;;5048894;28;20584;-72
2022/05/09 08:26:23;;;;;;;9.73;3.33;;;20.20;99.90;;;;;;5044444;28;20224;-73
2022/05/09 08:28:53;;;;;;;7.38;3.00;;;20.50;99.90;;;;;;5050558;28;20270;-73
2022/05/09 08:31:22;;;;;;;4.18;3.15;;;20.60;99.90;;;;;;5050277;28;20739;-75
2022/05/09 08:33:52;;;;;;;6.13;3.90;;;20.60;99.90;;;;;;5050057;28;20246;-73
2022/05/09 08:39:08;;;;;;;5.38;3.72;;;20.90;99.90;;;;;;5043486;28;20269;-74
2022/05/09 08:41:50;;;;;;;6.00;3.13;;;20.90;99.90;;;;;;5050735;28;20204;-74
2022/05/09 08:44:28;;;;;;;7.45;3.22;;;21.00;99.90;;;;;;5049944;28;20207;-75
2022/05/09 08:47:25;;;;;;;7.03;3.60;;;21.20;99.90;;;;;;5044241;28;20250;-75
2022/05/09 08:50:05;;;;;;;4.47;3.00;;;21.40;99.90;;;;;;5052086;28;20273;-74
2022/05/09 08:52:39;;;;;;;3.95;3.17;;;21.60;99.90;;;;;;5076144;22;20786;-64
2022/05/09 08:55:09;;;;;;;4.38;3.60;;;21.70;99.70;;;;;;5043862;28;20635;-64
2022/05/09 08:57:41;;;;;;;4.50;3.53;;;21.90;99.90;;;;;;5044039;28;20291;-64
2022/05/09 09:00:13;;;;;;;7.18;3.85;;;22.00;99.90;;;;;;5050178;28;20196;-64
2022/05/09 09:02:48;;;;;;;5.70;3.97;;;22.00;99.90;;;;;;5051621;28;20329;-64
2022/05/09 09:05:22;;;;;;;3.17;2.90;;;22.20;99.00;;;;;;5054213;28;20656;-64
2022/05/09 09:07:59;;;;;;;6.80;4.30;;;22.70;99.70;;;;;;5054443;28;20661;-65
2022/05/09 09:10:33;;;;;;;4.35;3.45;;;22.70;98.10;;;;;;5054223;28;20199;-65
2022/05/09 09:13:23;;;;;;;3.95;3.47;;;22.60;98.50;;;;;;5053618;28;20770;-64
2022/05/09 09:16:12;;;;;;;7.70;4.05;;;22.70;98.70;;;;;;5054354;28;20196;-64
2022/05/09 09:18:54;;;;;;;4.50;3.22;;;23.10;97.80;;;;;;5054164;28;20234;-65
2022/05/09 09:21:30;;;;;;;4.55;3.60;;;23.10;98.00;;;;;;5053820;28;20195;-65
2022/05/09 09:24:30;;;;;;;6.35;3.63;;;23.10;97.80;;;;;;5052768;28;20238;-64
2022/05/09 09:27:05;;;;;;;5.90;4.25;;;23.20;97.70;;;;;;5039084;28;20239;-64
2022/05/09 09:29:36;;;;;;;5.57;3.95;;;23.30;97.30;;;;;;5053866;28;20835;-65
2022/05/09 09:32:08;;;;;;;4.10;3.70;;;23.70;97.40;;;;;;5046454;28;20227;-64
2022/05/09 09:34:43;;;;;;;5.63;4.05;;;23.70;96.70;;;;;;5053826;28;20208;-64
2022/05/09 09:37:17;;;;;;;4.78;3.97;;;23.90;96.70;;;;;;5053756;28;20237;-64
2022/05/09 09:39:45;;;;;;;3.90;3.38;;;24.10;96.30;;;;;;5053915;28;20495;-64
2022/05/09 09:42:13;;;;;;;4.10;3.60;;;24.30;97.10;;;;;;5053158;28;20251;-63
2022/05/09 09:44:45;;;;;;;7.10;4.45;;;24.20;95.80;;;;;;5053565;28;20665;-64
2022/05/09 09:47:23;;;;;;;16.15;4.28;;;24.10;96.30;;;;;;5053758;28;20545;-64
2022/05/09 09:50:18;;;;;;;5.28;3.80;;;24.40;96.80;;;;;;5053342;28;20319;-65
2022/05/09 09:52:51;;;;;;;14.77;4.30;;;24.70;96.30;;;;;;5052411;28;20325;-65
2022/05/09 09:55:25;;;;;;;7.05;3.97;;;24.80;95.90;;;;;;5053289;28;20208;-64
2022/05/09 09:57:55;;;;;;;3.95;3.28;;;25.10;95.90;;;;;;5053352;28;20277;-65
2022/05/09 10:00:26;;;;;;;3.70;3.28;;;25.50;94.90;;;;;;5053659;28;20246;-65
2022/05/09 10:02:56;;;;;;;4.70;4.03;;;25.30;94.80;;;;;;5052789;28;20244;-64
2022/05/09 10:05:35;;;;;;;8.95;4.22;;;25.40;94.80;;;;;;5052975;28;20227;-65
2022/05/09 10:08:20;;;;;;;4.28;3.92;;;25.20;95.20;;;;;;5053303;28;20254;-65
2022/05/09 10:10:56;;;;;;;4.65;3.60;;;25.00;95.10;;;;;;5053194;28;20244;-64
2022/05/09 10:13:24;;;;;;;4.25;3.33;;;25.50;94.30;;;;;;5051603;28;20259;-64
2022/05/09 10:16:04;;;;;;;6.47;3.05;;;26.10;93.50;;;;;;5052635;28;20605;-65
2022/05/09 10:18:34;;;;;;;5.43;3.25;;;25.90;94.30;;;;;;5053599;28;20196;-65
2022/05/09 10:27:07;;;;;;;3.60;2.92;;;26.20;93.00;;;;;;5052910;28;20581;-65
2022/05/09 10:29:40;;;;;;;4.88;3.70;;;26.30;94.20;;;;;;5053173;28;20616;-65
2022/05/09 10:32:12;;;;;;;6.57;3.92;;;26.60;92.50;;;;;;5051622;28;20220;-64
2022/05/09 10:34:47;;;;;;;6.55;3.85;;;26.30;92.90;;;;;;5052758;28;20214;-65
2022/05/09 10:37:25;;;;;;;4.18;3.67;;;26.40;92.50;;;;;;5052610;28;20207;-64
2022/05/09 10:40:05;;;;;;;4.75;3.60;;;26.60;93.20;;;;;;5052793;28;20245;-65
2022/05/09 10:42:37;;;;;;;5.93;3.75;;;26.50;92.50;;;;;;5051606;28;20251;-65
2022/05/09 10:45:11;;;;;;;7.25;3.63;;;26.70;93.00;;;;;;5052547;28;20266;-64
2022/05/09 10:47:47;;;;;;;8.27;4.38;;;26.70;92.70;;;;;;5045775;28;20637;-65
2022/05/09 10:50:20;;;;;;;5.47;3.97;;;27.00;92.70;;;;;;5046618;28;20254;-65
2022/05/09 10:52:59;;;;;;;7.00;3.80;;;27.10;92.70;;;;;;5050904;28;20271;-65
2022/05/09 10:55:34;;;;;;;5.30;3.95;;;26.80;92.10;;;;;;5052010;28;20261;-66
2022/05/09 10:58:06;;;;;;;5.80;3.60;;;27.10;91.50;;;;;;5052267;28;20290;-64
2022/05/09 11:00:38;;;;;;;5.80;3.67;;;27.00;91.60;;;;;;5052227;28;20192;-65
2022/05/09 11:03:15;;;;;;;3.90;3.47;;;27.10;91.10;;;;;;5051589;28;20234;-64
2022/05/09 11:06:19;;;;;;;3.40;3.03;;;27.20;91.30;;;;;;5051415;28;20695;-64
2022/05/09 11:09:14;;;;;;;4.28;3.47;;;27.30;91.00;;;;;;5052572;28;20551;-64
2022/05/09 11:11:55;;;;;;;5.13;3.70;;;27.00;91.20;;;;;;5047776;28;20302;-64
2022/05/09 11:14:33;;;;;;;4.95;4.03;;;26.90;91.00;;;;;;5051729;28;20607;-63
2022/05/09 11:17:23;;;;;;;4.07;3.50;;;27.30;90.10;;;;;;5051501;28;20204;-63
2022/05/09 11:20:05;;;;;;;3.67;3.22;;;27.70;90.50;;;;;;5051884;28;20578;-64
2022/05/09 11:22:37;;;;;;;3.28;2.95;;;27.50;90.20;;;;;;5051438;28;20655;-64
2022/05/09 11:25:26;;;;;;;4.47;4.07;;;28.00;90.40;;;;;;5051487;28;20207;-62
2022/05/09 11:28:09;;;;;;;4.95;3.20;;;27.60;89.80;;;;;;5045088;28;20227;-64
2022/05/09 11:30:40;;;;;;;5.25;4.07;;;27.70;89.60;;;;;;5051751;28;20216;-64
2022/05/09 11:33:34;;;;;;;5.55;3.58;;;28.00;90.30;;;;;;5050878;28;20277;-63
2022/05/09 11:36:07;;;;;;;6.93;3.22;;;28.20;87.70;;;;;;5051252;28;20215;-64
2022/05/09 11:38:54;;;;;;;3.17;2.90;;;28.20;87.50;;;;;;5045145;28;20282;-63
2022/05/09 11:41:36;;;;;;;3.35;3.05;;;28.30;88.80;;;;;;5051319;28;20203;-64
2022/05/09 11:44:13;;;;;;;4.32;3.60;;;28.40;86.00;;;;;;5050822;28;20257;-63
2022/05/09 11:47:06;;;;;;;2.90;2.70;;;28.60;89.70;;;;;;5051443;28;20211;-64
2022/05/09 11:49:53;;;;;;;6.25;3.40;;;28.70;87.80;;;;;;5041183;28;20232;-64
2022/05/09 11:52:27;;;;;;;7.32;4.05;;;28.20;86.50;;;;;;5050092;28;20235;-63
2022/05/09 11:55:01;;;;;;;3.30;3.00;;;27.80;87.40;;;;;;5051303;28;20661;-65
2022/05/09 11:57:34;;;;;;;3.78;3.45;;;27.90;87.30;;;;;;5044392;28;20687;-64
2022/05/09 12:00:06;;;;;;;3.47;3.28;;;27.80;86.50;;;;;;5044981;28;20321;-64
2022/05/09 12:02:47;;;;;;;3.35;3.10;;;27.90;85.90;;;;;;5050152;28;20560;-64
2022/05/09 12:05:50;;;;;;;3.30;3.00;;;28.20;84.70;;;;;;5050968;28;20742;-63
2022/05/09 12:08:20;;;;;;;2.65;2.55;;;28.50;83.90;;;;;;5051199;28;20235;-64
2022/05/09 12:10:49;;;;;;;3.28;2.85;;;29.20;83.20;;;;;;5050747;28;20255;-64
2022/05/09 12:13:48;;;;;;;3.08;2.78;;;29.60;82.20;;;;;;5050170;28;20281;-64
2022/05/09 12:16:44;;;;;;;4.45;3.70;;;29.70;83.50;;;;;;5050620;28;20704;-63
2022/05/09 12:19:15;;;;;;;2.65;2.45;;;29.70;81.60;;;;;;5050992;28;20208;-63
2022/05/09 12:21:43;;;;;;;4.25;2.85;;;29.30;82.50;;;;;;5049706;28;20218;-64
2022/05/09 12:24:23;;;;;;;3.92;2.70;;;29.70;83.40;;;;;;5050259;28;20239;-64
2022/05/09 12:26:53;;;;;;;2.85;2.65;;;29.90;81.60;;;;;;5050525;28;20203;-63
2022/05/09 12:29:51;;;;;;;3.05;2.75;;;30.10;77.70;;;;;;5050786;28;20231;-64
2022/05/09 12:32:21;;;;;;;3.67;2.42;;;29.70;79.90;;;;;;5049251;28;20251;-62
2022/05/09 12:34:49;;;;;;;3.03;2.83;;;29.80;78.50;;;;;;5050560;28;20583;-63
2022/05/09 12:37:45;;;;;;;3.10;2.90;;;29.60;79.90;;;;;;5049692;28;20210;-63
2022/05/09 12:40:21;;;;;;;3.05;2.72;;;29.20;80.00;;;;;;5044469;28;20543;-64
2022/05/09 12:42:53;;;;;;;2.47;2.30;;;29.50;77.80;;;;;;5049126;28;20262;-64
2022/05/09 12:45:23;;;;;;;3.67;3.00;;;29.90;78.50;;;;;;5050710;28;20552;-64
2022/05/09 12:47:51;;;;;;;4.60;2.85;;;30.00;78.00;;;;;;5050643;28;20767;-64
2022/05/09 12:50:27;;;;;;;2.30;2.20;;;30.50;79.60;;;;;;5050291;28;20302;-64
2022/05/09 12:52:57;;;;;;;3.60;2.78;;;30.80;76.30;;;;;;5049291;28;20293;-64
2022/05/09 12:58:22;;;;;;;3.00;2.80;;;31.40;75.00;;;;;;5050807;28;20302;-63
2022/05/09 13:00:57;;;;;;;5.88;3.10;;;30.80;76.80;;;;;;5044755;28;20231;-64
2022/05/09 13:03:48;;;;;;;3.75;2.75;;;30.70;77.20;;;;;;5049488;28;20206;-64
2022/05/09 13:06:18;;;;;;;3.53;3.22;;;30.80;76.60;;;;;;5050665;28;20207;-64
2022/05/09 13:08:46;;;;;;;2.60;2.40;;;31.20;76.60;;;;;;5050554;28;20572;-64
2022/05/09 13:11:18;;;;;;;3.75;3.10;;;31.20;76.50;;;;;;5050212;28;20628;-64
2022/05/09 13:13:56;;;;;;;2.95;2.75;;;31.40;75.40;;;;;;5049760;28;20250;-64
2022/05/09 13:16:32;;;;;;;2.72;2.53;;;31.10;76.00;;;;;;5044251;28;20245;-65
2022/05/09 13:19:00;;;;;;;3.95;2.75;;;30.90;76.70;;;;;;5050616;28;20294;-64
2022/05/09 13:21:40;;;;;;;4.60;2.63;;;31.30;74.50;;;;;;5049787;28;20215;-64
2022/05/09 13:24:15;;;;;;;3.30;2.47;;;31.80;75.00;;;;;;5046991;28;20243;-64
2022/05/09 13:26:48;;;;;;;3.50;2.95;;;31.50;74.10;;;;;;5050053;28;20204;-64
2022/05/09 13:29:27;;;;;;;3.15;2.60;;;31.20;73.90;;;;;;5050297;28;20218;-64
2022/05/09 13:31:57;;;;;;;2.97;2.67;;;31.10;76.90;;;;;;5049902;28;20306;-63
2022/05/09 13:34:30;;;;;;;2.85;2.65;;;31.70;73.40;;;;;;5043718;28;20610;-64